Time;durP1;ratioP1;P1;durP2;ratioP2;P2;SDS_P1;SDS_P2;PMS_P1;PMS_P2;Temp;Humidity;BMP_temperature;BMP_pressure;BME280_temperature;BME280_humidity;BME280_pressure;Samples;Min_cycle;Max_cycle;Signal;HPM_P1;HPM_P2
2023/02/14 00:04:42;;;;;;;10.70;6.80;;;;;;;2.76;96.71;101141.84;450508;1250;207242;-65
2023/02/14 00:25:12;;;;;;;8.90;5.60;;;;;;;2.77;96.60;101143.05;439508;1252;141546;-66
2023/02/14 00:35:17;;;;;;;8.70;5.20;;;;;;;2.76;96.38;101137.35;448093;1250;143798;-66
2023/02/14 00:45:24;;;;;;;7.80;6.20;;;;;;;2.77;96.40;101141.32;451027;1249;141037;-66
2023/02/14 00:55:29;;;;;;;8.10;5.30;;;;;;;2.79;96.69;101143.72;450191;1250;142546;-66
2023/02/14 01:05:35;;;;;;;8.70;6.50;;;;;;;2.77;96.72;101143.73;451031;1250;141892;-66
2023/02/14 01:15:44;;;;;;;8.60;5.70;;;;;;;2.76;96.57;101144.09;450244;1250;143938;-65
2023/02/14 01:25:50;;;;;;;6.30;5.50;;;;;;;2.75;96.51;101143.58;451035;1250;142105;-66
2023/02/14 01:35:57;;;;;;;8.60;6.20;;;;;;;2.76;96.55;101131.99;440274;1253;142893;-66
2023/02/14 01:46:03;;;;;;;11.10;5.90;;;;;;;2.73;96.86;101127.70;450247;1250;141582;-64
2023/02/14 01:56:13;;;;;;;7.90;5.50;;;;;;;2.72;96.88;101125.80;451065;1250;141951;-64
2023/02/14 02:06:22;;;;;;;7.20;5.30;;;;;;;2.71;96.91;101114.91;451089;1250;142010;-66
2023/02/14 02:16:48;;;;;;;8.80;6.10;;;;;;;2.70;96.90;101115.27;450124;1251;142737;-66
2023/02/14 02:27:31;;;;;;;6.80;4.70;;;;;;;2.69;97.14;101117.34;445104;1251;142584;-66
2023/02/14 02:37:46;;;;;;;7.50;5.40;;;;;;;2.68;96.98;101114.07;450233;1250;142088;-67
2023/02/14 02:48:00;;;;;;;7.70;5.40;;;;;;;2.65;97.18;101108.73;451069;1250;141907;-67
2023/02/14 02:58:06;;;;;;;6.60;5.40;;;;;;;2.62;97.46;101120.33;449738;1250;143001;-66
2023/02/14 03:08:12;;;;;;;5.20;4.50;;;;;;;2.59;97.57;101123.29;444476;1250;142150;-66
2023/02/14 03:29:09;;;;;;;9.10;5.70;;;;;;;2.53;97.90;101134.55;450712;1250;142874;-67
2023/02/14 03:39:21;;;;;;;8.50;5.40;;;;;;;2.50;98.11;101139.76;450960;1250;140962;-66
2023/02/14 03:49:34;;;;;;;10.70;6.90;;;;;;;2.44;98.09;101140.84;450320;1250;142066;-66
2023/02/14 03:59:41;;;;;;;9.60;7.20;;;;;;;2.37;98.37;101157.12;451016;1250;142144;-66
2023/02/14 04:09:47;;;;;;;10.90;7.30;;;;;;;2.35;98.37;101163.34;443004;1250;141729;-65
2023/02/14 04:19:53;;;;;;;10.80;7.90;;;;;;;2.32;98.52;101155.57;451008;1251;142183;-66
2023/02/14 04:29:59;;;;;;;11.10;8.20;;;;;;;2.20;98.74;101156.84;450972;1250;141928;-66
2023/02/14 04:40:07;;;;;;;9.10;7.80;;;;;;;2.15;98.87;101165.16;437526;1251;143004;-65
2023/02/14 04:50:14;;;;;;;12.40;8.70;;;;;;;2.12;99.44;101169.33;446992;1251;142360;-65
2023/02/14 05:00:21;;;;;;;13.20;8.10;;;;;;;2.01;99.67;101175.91;451090;1251;141577;-65
2023/02/14 05:10:28;;;;;;;10.60;8.50;;;;;;;1.92;99.83;101172.66;450180;1251;141608;-65
2023/02/14 05:20:33;;;;;;;9.70;8.20;;;;;;;1.87;99.89;101177.33;447218;1250;142120;-73
2023/02/14 05:30:40;;;;;;;15.00;8.70;;;;;;;1.84;100.00;101173.71;434407;1253;141499;-72
2023/02/14 05:40:46;;;;;;;16.20;9.30;;;;;;;1.81;100.00;101174.59;450937;1251;141862;-73
2023/02/14 05:50:52;;;;;;;11.70;9.90;;;;;;;1.80;100.00;101186.67;442338;1251;142318;-73
2023/02/14 06:01:00;;;;;;;16.50;10.20;;;;;;;1.78;100.00;101191.68;440678;1250;164948;-73
2023/02/14 06:11:07;;;;;;;13.60;9.40;;;;;;;1.78;100.00;101200.67;440249;1251;142668;-68
2023/02/14 06:21:13;;;;;;;12.10;9.50;;;;;;;1.77;100.00;101209.14;443248;1250;141033;-70
2023/02/14 06:31:19;;;;;;;13.70;10.80;;;;;;;1.78;100.00;101216.38;434675;1253;141611;-68
2023/02/14 06:41:25;;;;;;;12.90;9.70;;;;;;;1.79;100.00;101219.30;438389;1251;142352;-68
2023/02/14 06:51:31;;;;;;;17.80;10.20;;;;;;;1.79;100.00;101223.11;434605;1251;142237;-65
2023/02/14 07:01:38;;;;;;;16.70;11.10;;;;;;;1.75;100.00;101229.67;434796;1251;142758;-65
2023/02/14 07:11:44;;;;;;;16.70;12.20;;;;;;;1.76;100.00;101238.48;434143;1252;142687;-65
2023/02/14 07:21:50;;;;;;;18.90;11.90;;;;;;;1.73;100.00;101250.75;433720;1253;142773;-65
2023/02/14 07:31:56;;;;;;;13.00;8.60;;;;;;;1.74;100.00;101255.92;434281;1253;141671;-65
2023/02/14 07:42:02;;;;;;;16.70;12.20;;;;;;;1.85;100.00;101256.08;434184;1251;143453;-65
2023/02/14 07:52:09;;;;;;;16.80;11.00;;;;;;;1.90;100.00;101251.41;438750;1250;142133;-65
2023/02/14 08:02:15;;;;;;;14.40;10.60;;;;;;;1.99;100.00;101249.50;435354;1251;143872;-65
2023/02/14 08:22:45;;;;;;;12.70;10.50;;;;;;;2.15;100.00;101266.08;437116;1249;213023;-67
2023/02/14 08:32:50;;;;;;;17.30;12.40;;;;;;;2.12;100.00;101275.23;438954;1250;141277;-66
2023/02/14 08:42:56;;;;;;;14.30;11.00;;;;;;;2.29;100.00;101271.55;434588;1251;143402;-66
2023/02/14 08:53:06;;;;;;;12.70;10.80;;;;;;;2.41;100.00;101276.19;440264;1251;141714;-67
2023/02/14 09:03:12;;;;;;;12.70;10.40;;;;;;;2.53;100.00;101287.56;435186;1253;141200;-67
2023/02/14 09:13:18;;;;;;;14.90;11.10;;;;;;;2.64;100.00;101298.75;434295;1253;141810;-67
2023/02/14 09:23:24;;;;;;;13.30;10.70;;;;;;;2.63;100.00;101299.63;437075;1249;142809;-66
2023/02/14 09:33:30;;;;;;;16.50;11.50;;;;;;;2.72;99.98;101307.73;435112;1253;143269;-67
2023/02/14 09:43:47;;;;;;;13.90;10.30;;;;;;;2.87;100.00;101319.25;433748;1253;200241;-66
2023/02/14 09:53:58;;;;;;;15.90;9.00;;;;;;;2.80;99.97;101320.15;434510;1250;142233;-66
2023/02/14 10:04:20;;;;;;;14.20;8.70;;;;;;;2.87;99.70;101320.46;433892;1251;142167;-66
2023/02/14 10:14:29;;;;;;;12.50;8.50;;;;;;;2.89;99.65;101315.61;439341;1250;142041;-66
2023/02/14 10:24:42;;;;;;;12.10;8.40;;;;;;;3.02;99.46;101312.09;436291;1250;141634;-66
2023/02/14 10:34:50;;;;;;;10.70;8.60;;;;;;;3.13;99.16;101307.70;435690;1250;141699;-66
2023/02/14 10:45:06;;;;;;;13.50;10.00;;;;;;;3.31;99.02;101295.65;437582;1250;141606;-67
2023/02/14 10:55:20;;;;;;;12.50;9.60;;;;;;;3.34;99.05;101299.27;434848;1250;141994;-66
2023/02/14 11:05:41;;;;;;;12.60;9.70;;;;;;;3.40;98.75;101307.38;437467;1250;141901;-66
2023/02/14 11:15:52;;;;;;;10.20;9.10;;;;;;;3.38;98.05;101299.95;438952;1250;142826;-66
2023/02/14 11:25:59;;;;;;;12.00;10.40;;;;;;;3.37;98.35;101294.92;439402;1250;141698;-65
2023/02/14 11:36:10;;;;;;;12.00;10.40;;;;;;;3.49;98.43;101286.36;434688;1253;141650;-65
2023/02/14 11:46:25;;;;;;;12.80;10.00;;;;;;;3.50;97.97;101280.98;435040;1250;141985;-66
2023/02/14 11:56:47;;;;;;;11.80;9.50;;;;;;;3.83;98.09;101275.87;434898;1253;141908;-66
2023/02/14 12:06:54;;;;;;;12.50;10.50;;;;;;;3.86;97.02;101267.69;435598;1251;141990;-64
2023/02/14 12:17:06;;;;;;;13.00;10.50;;;;;;;3.68;97.34;101261.43;436083;1249;197300;-65
2023/02/14 12:27:23;;;;;;;13.30;9.80;;;;;;;3.88;97.12;101261.27;434827;1251;141085;-67
2023/02/14 12:37:40;;;;;;;14.10;9.60;;;;;;;3.65;96.65;101261.30;435939;1250;141737;-67
2023/02/14 12:47:59;;;;;;;12.50;10.50;;;;;;;3.81;96.64;101260.65;436247;1250;141437;-66
2023/02/14 12:58:18;;;;;;;15.80;11.40;;;;;;;3.91;96.34;101249.47;435840;1251;141679;-67
2023/02/14 13:08:40;;;;;;;17.20;11.50;;;;;;;3.73;95.99;101240.45;435606;1252;142224;-66
2023/02/14 13:18:54;;;;;;;12.00;10.80;;;;;;;3.63;95.81;101236.55;434293;1250;142659;-66
2023/02/14 13:29:06;;;;;;;21.70;17.50;;;;;;;3.63;95.83;101236.38;440638;1250;141566;-67
2023/02/14 13:39:21;;;;;;;15.20;12.70;;;;;;;3.64;96.15;101247.10;436127;1253;141485;-67
2023/02/14 13:49:31;;;;;;;15.80;13.00;;;;;;;3.73;95.93;101241.83;436361;1249;142876;-66
2023/02/14 13:59:38;;;;;;;15.20;12.80;;;;;;;3.69;95.64;101238.92;437099;1250;142202;-67
2023/02/14 14:10:10;;;;;;;16.70;14.80;;;;;;;3.59;95.47;101237.96;434616;1249;142160;-68
2023/02/14 14:20:42;;;;;;;20.60;13.40;;;;;;;3.30;95.46;101243.40;435301;1251;142216;-65
2023/02/14 14:30:48;;;;;;;14.80;12.60;;;;;;;3.11;95.43;101245.09;433484;1253;142296;-65
2023/02/14 14:40:55;;;;;;;17.60;13.60;;;;;;;3.01;95.84;101243.59;434488;1253;143703;-65
2023/02/14 14:51:03;;;;;;;16.90;13.90;;;;;;;3.03;96.47;101247.39;446133;1249;142379;-66
2023/02/14 15:01:20;;;;;;;15.50;13.40;;;;;;;2.99;96.42;101243.07;450101;1250;142608;-66
2023/02/14 15:21:52;;;;;;;13.50;12.00;;;;;;;2.80;96.31;101234.70;435886;1250;142408;-66
2023/02/14 15:32:02;;;;;;;16.20;13.90;;;;;;;2.74;96.83;101240.79;450686;1249;143776;-67
2023/02/14 15:42:24;;;;;;;16.80;13.50;;;;;;;2.74;96.69;101244.07;451078;1249;141995;-68
2023/02/14 15:52:30;;;;;;;20.40;14.40;;;;;;;2.72;96.97;101249.10;449113;1250;142048;-67
2023/02/14 16:02:40;;;;;;;21.90;16.00;;;;;;;2.68;97.10;101253.79;434587;1253;142982;-68
2023/02/14 16:12:55;;;;;;;18.50;15.00;;;;;;;2.65;97.39;101260.55;450285;1250;142294;-68
2023/02/14 16:23:23;;;;;;;21.00;16.10;;;;;;;2.64;97.21;101259.17;451253;1250;142099;-68
2023/02/14 16:33:30;;;;;;;;;;;;;;;2.62;97.20;101257.79;451226;1250;142677;-68
2023/02/14 16:43:37;;;;;;;18.20;14.30;;;;;;;2.63;97.40;101263.33;451108;1249;184872;-68
2023/02/14 16:53:43;;;;;;;17.20;15.40;;;;;;;2.63;97.51;101271.79;440192;1253;141843;-67
2023/02/14 17:03:49;;;;;;;22.30;14.70;;;;;;;2.63;97.54;101277.66;439370;1249;141749;-67
2023/02/14 17:13:56;;;;;;;18.30;13.90;;;;;;;2.57;97.11;101280.29;449541;1250;142007;-68
2023/02/14 17:24:05;;;;;;;15.90;12.80;;;;;;;2.54;97.37;101279.09;434435;1251;140916;-68
2023/02/14 17:34:11;;;;;;;16.40;13.90;;;;;;;2.53;97.56;101278.91;439091;1249;143487;-69
2023/02/14 17:44:17;;;;;;;16.80;14.60;;;;;;;2.47;97.37;101276.86;434544;1250;184337;-69
2023/02/14 17:54:23;;;;;;;19.00;15.60;;;;;;;2.43;97.56;101272.04;434628;1251;141304;-68
2023/02/14 18:04:32;;;;;;;16.20;14.50;;;;;;;2.43;97.86;101269.96;441087;1251;204292;-67
2023/02/14 18:14:38;;;;;;;16.80;14.90;;;;;;;2.43;97.83;101270.99;435062;1250;141929;-69
2023/02/14 18:24:44;;;;;;;24.60;16.20;;;;;;;2.44;98.09;101274.46;450156;1250;143848;-68
2023/02/14 18:34:51;;;;;;;16.60;14.10;;;;;;;2.44;97.77;101278.26;450190;1250;143756;-68
2023/02/14 18:44:57;;;;;;;15.90;14.20;;;;;;;2.41;97.88;101276.88;443442;1250;142071;-69
2023/02/14 18:55:04;;;;;;;18.00;14.10;;;;;;;2.42;97.97;101282.59;450095;1250;142984;-69
2023/02/14 19:05:10;;;;;;;17.80;14.70;;;;;;;2.43;98.15;101277.23;434483;1253;141512;-68
2023/02/14 19:15:17;;;;;;;18.50;14.90;;;;;;;2.37;98.13;101273.27;443648;1249;142101;-67
2023/02/14 19:25:22;;;;;;;;;;;;;;;2.37;98.00;101263.41;450121;1250;142964;-66
2023/02/14 19:35:28;;;;;;;15.40;13.30;;;;;;;2.37;98.13;101258.73;450899;1250;128130;-67
2023/02/14 19:45:34;;;;;;;16.00;13.30;;;;;;;2.37;97.89;101253.05;442071;1251;141755;-66
2023/02/14 19:55:41;;;;;;;20.40;12.90;;;;;;;2.31;97.96;101256.02;442246;1250;142190;-66
2023/02/14 20:05:47;;;;;;;15.30;13.50;;;;;;;2.27;97.98;101252.90;448290;1250;141680;-67
2023/02/14 20:15:53;;;;;;;18.80;15.70;;;;;;;2.09;97.99;101249.30;439124;1251;141607;-68
2023/02/14 20:25:59;;;;;;;24.40;18.10;;;;;;;2.00;98.10;101246.91;441361;1251;142154;-66
2023/02/14 20:36:06;;;;;;;40.80;25.30;;;;;;;1.98;98.50;101243.64;448276;1249;142197;-66
2023/02/14 20:46:12;;;;;;;43.60;27.30;;;;;;;1.97;98.45;101242.95;449984;1251;141617;-69
2023/02/14 20:56:19;;;;;;;57.20;37.30;;;;;;;1.98;98.49;101252.80;443872;1249;142295;-67
2023/02/14 21:06:27;;;;;;;47.90;32.60;;;;;;;2.03;98.99;101257.63;450805;1250;143779;-67
2023/02/14 21:16:35;;;;;;;48.10;31.20;;;;;;;2.08;98.98;101256.40;450168;1250;141880;-67
2023/02/14 21:26:43;;;;;;;41.30;31.90;;;;;;;2.08;98.92;101240.34;450776;1251;151094;-67
2023/02/14 21:36:48;;;;;;;42.20;30.30;;;;;;;2.09;98.97;101228.07;445419;1250;141358;-66
2023/02/14 21:46:55;;;;;;;56.40;35.10;;;;;;;2.11;99.03;101218.21;446735;1251;153429;-67
2023/02/14 21:57:01;;;;;;;61.00;37.70;;;;;;;2.03;99.33;101217.55;444455;1251;146182;-68
2023/02/14 22:07:07;;;;;;;72.00;42.20;;;;;;;2.03;99.40;101218.92;449336;1251;143349;-68
2023/02/14 22:17:13;;;;;;;105.50;59.40;;;;;;;2.01;99.39;101214.44;450728;1250;143664;-67
2023/02/14 22:27:30;;;;;;;101.20;56.10;;;;;;;1.98;99.13;101213.76;450831;1250;142441;-67
2023/02/14 22:37:36;;;;;;;87.00;49.90;;;;;;;2.01;99.52;101214.61;439074;1253;199959;-66
2023/02/14 22:47:42;;;;;;;74.80;48.40;;;;;;;2.07;99.62;101213.90;434383;1254;141575;-67
2023/02/14 22:57:48;;;;;;;66.50;43.50;;;;;;;2.05;99.49;101218.23;433529;1251;142159;-66
2023/02/14 23:07:54;;;;;;;51.30;33.10;;;;;;;1.99;99.66;101214.79;450835;1249;143311;-67
2023/02/14 23:28:24;;;;;;;50.40;33.00;;;;;;;1.97;99.75;101197.86;435073;1253;142446;-68
2023/02/14 23:38:30;;;;;;;45.20;29.70;;;;;;;1.96;99.87;101186.30;450230;1251;142110;-67
2023/02/14 23:48:36;;;;;;;37.90;27.90;;;;;;;1.91;99.90;101180.61;450222;1251;142928;-67
2023/02/14 23:58:42;;;;;;;32.30;24.40;;;;;;;1.92;100.00;101185.45;450757;1251;142238;-67
